Time;durP1;ratioP1;P1;durP2;ratioP2;P2;SDS_P1;SDS_P2;PMS_P1;PMS_P2;Temp;Humidity;BMP_temperature;BMP_pressure;BME280_temperature;BME280_humidity;BME280_pressure;Samples;Min_cycle;Max_cycle;Signal;HPM_P1;HPM_P2
2022/07/14 00:01:16;;;;;;;2.58;1.60;;;29.00;44.60;;;;;;5073706;28;20099;-80
2022/07/14 00:03:42;;;;;;;2.95;1.70;;;29.00;45.00;;;;;;5091924;28;20024;-80
2022/07/14 00:06:08;;;;;;;5.53;1.80;;;29.10;45.20;;;;;;5073578;28;20033;-80
2022/07/14 00:08:33;;;;;;;3.08;1.90;;;28.90;45.10;;;;;;5072644;28;20059;-79
2022/07/14 00:11:04;;;;;;;4.43;1.70;;;28.80;45.50;;;;;;5074277;28;20096;-78
2022/07/14 00:13:29;;;;;;;2.88;1.58;;;28.70;45.40;;;;;;5076832;28;20378;-78
2022/07/14 00:15:55;;;;;;;3.40;1.90;;;28.70;45.50;;;;;;5075079;28;20493;-83
2022/07/14 00:18:21;;;;;;;3.17;1.67;;;28.70;45.70;;;;;;5073777;28;20024;-80
2022/07/14 00:20:46;;;;;;;4.10;1.88;;;28.60;45.90;;;;;;5088946;28;20111;-82
2022/07/14 00:23:12;;;;;;;3.58;1.70;;;28.40;46.20;;;;;;5074301;28;20024;-81
2022/07/14 00:25:38;;;;;;;3.20;1.80;;;28.40;46.30;;;;;;5088655;28;20086;-81
2022/07/14 00:28:04;;;;;;;4.72;1.85;;;28.40;46.40;;;;;;5073263;28;20132;-79
2022/07/14 00:30:30;;;;;;;4.70;2.00;;;28.10;47.20;;;;;;5074106;28;20017;-81
2022/07/14 00:32:56;;;;;;;3.33;1.80;;;28.10;47.70;;;;;;5073477;28;20375;-84
2022/07/14 00:35:21;;;;;;;4.00;1.80;;;28.00;47.70;;;;;;5073977;28;20474;-83
2022/07/14 00:37:47;;;;;;;3.70;1.85;;;28.00;48.20;;;;;;5072264;28;20025;-81
2022/07/14 00:40:13;;;;;;;4.05;1.83;;;28.00;48.10;;;;;;5083857;28;20024;-80
2022/07/14 00:42:40;;;;;;;3.00;1.70;;;28.10;47.70;;;;;;5093836;28;20382;-82
2022/07/14 00:45:09;;;;;;;3.13;1.80;;;28.00;47.60;;;;;;5091072;28;20020;-78
2022/07/14 00:47:35;;;;;;;4.47;2.00;;;27.90;47.60;;;;;;5092168;28;20074;-80
2022/07/14 00:50:00;;;;;;;3.60;1.98;;;27.90;48.00;;;;;;5085906;28;20061;-86
2022/07/14 00:52:28;;;;;;;4.03;2.00;;;27.70;48.40;;;;;;5071926;28;20024;-79
2022/07/14 00:54:55;;;;;;;6.13;2.20;;;27.60;48.40;;;;;;5072991;28;20074;-79
2022/07/14 00:57:21;;;;;;;4.97;2.05;;;27.60;48.40;;;;;;5072755;28;20043;-78
2022/07/14 00:59:48;;;;;;;3.42;1.90;;;27.60;48.20;;;;;;5074745;28;20436;-86
2022/07/14 01:02:15;;;;;;;4.32;2.20;;;27.70;47.70;;;;;;5071565;28;20035;-80
2022/07/14 01:04:41;;;;;;;12.65;2.10;;;27.70;47.60;;;;;;5076742;28;20094;-83
2022/07/14 01:07:07;;;;;;;5.07;2.15;;;27.60;47.40;;;;;;5094068;28;20036;-80
2022/07/14 01:09:33;;;;;;;5.03;2.00;;;27.50;47.70;;;;;;5075706;28;20372;-82
2022/07/14 01:12:00;;;;;;;4.53;2.00;;;27.40;48.00;;;;;;5075780;28;20047;-82
2022/07/14 01:14:25;;;;;;;5.47;1.85;;;27.40;47.90;;;;;;5077587;28;20024;-84
2022/07/14 01:16:55;;;;;;;3.25;1.90;;;27.50;47.90;;;;;;5083285;28;20017;-88
2022/07/14 01:19:21;;;;;;;4.22;1.95;;;27.40;47.60;;;;;;5076908;28;20047;-80
2022/07/14 01:21:52;;;;;;;3.33;1.80;;;27.40;47.50;;;;;;5076828;28;20021;-79
2022/07/14 01:24:17;;;;;;;3.70;2.00;;;27.50;47.40;;;;;;5076408;28;20479;-78
2022/07/14 01:26:43;;;;;;;3.60;1.90;;;27.60;47.50;;;;;;5080703;28;20044;-87
2022/07/14 01:29:09;;;;;;;3.88;2.15;;;27.60;47.10;;;;;;5076375;28;20499;-79
2022/07/14 01:31:34;;;;;;;3.75;2.20;;;27.60;47.30;;;;;;5075724;28;20364;-79
2022/07/14 01:34:00;;;;;;;4.28;2.30;;;27.60;47.30;;;;;;5076593;28;20021;-81
2022/07/14 01:36:26;;;;;;;4.88;2.13;;;27.60;47.40;;;;;;5076357;28;20419;-80
2022/07/14 01:38:52;;;;;;;3.28;1.83;;;27.60;47.70;;;;;;5076440;28;20458;-82
2022/07/14 01:41:20;;;;;;;3.80;2.10;;;27.60;47.60;;;;;;5076291;28;20484;-88
2022/07/14 01:43:46;;;;;;;3.65;1.90;;;27.60;47.40;;;;;;5075138;28;20465;-81
2022/07/14 01:46:12;;;;;;;3.13;1.85;;;27.60;47.50;;;;;;5076963;28;20479;-77
2022/07/14 01:48:38;;;;;;;4.28;2.00;;;27.60;47.40;;;;;;5074362;28;20102;-81
2022/07/14 01:51:03;;;;;;;3.40;1.90;;;27.60;47.40;;;;;;5087019;28;20471;-79
2022/07/14 01:53:29;;;;;;;4.15;1.80;;;27.60;47.40;;;;;;5077312;28;20093;-79
2022/07/14 01:55:55;;;;;;;3.13;1.92;;;27.50;47.20;;;;;;5096528;28;20470;-83
2022/07/14 01:58:21;;;;;;;6.53;2.00;;;27.60;47.20;;;;;;5095133;28;20053;-80
2022/07/14 02:01:39;;;;;;;2.72;1.70;;;27.60;47.30;;;;;;5093851;28;20024;-79
2022/07/14 02:03:32;;;;;;;5.40;1.92;;;27.70;47.60;;;;;;5096014;28;20028;-81
2022/07/14 02:05:58;;;;;;;4.22;1.95;;;27.70;47.50;;;;;;5094770;28;20024;-85
2022/07/14 02:08:23;;;;;;;2.85;1.80;;;27.80;47.30;;;;;;5095980;28;20118;-78
2022/07/14 02:13:33;;;;;;;2.92;1.70;;;27.90;47.60;;;;;;5096134;28;20035;-83
2022/07/14 02:15:59;;;;;;;4.03;1.90;;;27.90;47.50;;;;;;5093801;28;20016;-78
2022/07/14 02:18:24;;;;;;;4.25;1.92;;;28.00;47.60;;;;;;5089589;28;20020;-79
2022/07/14 02:20:50;;;;;;;5.85;1.80;;;27.90;47.60;;;;;;5076202;28;20100;-83
2022/07/14 02:23:16;;;;;;;6.88;1.90;;;27.90;47.60;;;;;;5076601;28;20491;-80
2022/07/14 02:25:42;;;;;;;3.17;1.90;;;27.80;47.80;;;;;;5075943;28;20383;-84
2022/07/14 02:28:07;;;;;;;6.28;1.90;;;27.70;47.80;;;;;;5075561;28;20028;-85
2022/07/14 02:30:33;;;;;;;3.03;1.70;;;27.60;47.90;;;;;;5074540;28;20028;-85
2022/07/14 02:32:59;;;;;;;3.55;1.90;;;27.40;47.90;;;;;;5075648;28;20270;-81
2022/07/14 02:35:24;;;;;;;4.63;2.00;;;27.40;48.10;;;;;;5095693;28;20100;-82
2022/07/14 02:37:50;;;;;;;3.85;1.90;;;27.30;48.10;;;;;;5086532;28;20020;-80
2022/07/14 02:40:16;;;;;;;4.22;1.80;;;27.30;48.10;;;;;;5075292;28;20070;-80
2022/07/14 02:42:42;;;;;;;3.20;2.03;;;27.30;48.20;;;;;;5079657;28;20028;-80
2022/07/14 02:45:08;;;;;;;3.38;1.90;;;27.20;48.10;;;;;;5094546;28;20038;-82
2022/07/14 02:47:34;;;;;;;6.57;1.92;;;27.10;48.30;;;;;;5095373;28;20510;-82
2022/07/14 02:50:00;;;;;;;3.28;1.77;;;27.10;48.20;;;;;;5082647;28;20040;-79
2022/07/14 02:52:25;;;;;;;5.72;1.90;;;27.20;48.10;;;;;;5075343;28;20095;-87
2022/07/14 02:54:51;;;;;;;4.18;1.80;;;27.20;48.00;;;;;;5076764;28;20057;-84
2022/07/14 02:57:17;;;;;;;4.45;2.00;;;27.20;48.00;;;;;;5076950;28;20031;-81
2022/07/14 02:59:42;;;;;;;4.45;2.03;;;27.30;48.00;;;;;;5072144;28;20032;-78
2022/07/14 03:02:09;;;;;;;6.32;2.17;;;27.20;48.10;;;;;;5072584;28;20097;-78
2022/07/14 03:04:35;;;;;;;3.03;1.88;;;27.20;47.90;;;;;;5072494;28;20036;-78
2022/07/14 03:07:01;;;;;;;3.38;2.00;;;27.20;48.20;;;;;;5085550;28;20016;-78
2022/07/14 03:09:27;;;;;;;4.07;2.03;;;27.30;48.30;;;;;;5092745;28;20039;-77
2022/07/14 03:11:53;;;;;;;3.95;1.70;;;27.20;48.70;;;;;;5092622;28;20023;-77
2022/07/14 03:14:19;;;;;;;3.83;2.08;;;27.10;48.90;;;;;;5090083;28;20052;-77
2022/07/14 03:16:45;;;;;;;2.90;1.83;;;27.00;49.40;;;;;;5075870;28;20131;-79
2022/07/14 03:19:10;;;;;;;3.53;1.98;;;27.10;49.60;;;;;;5078690;28;20016;-78
2022/07/14 03:21:36;;;;;;;3.33;2.00;;;27.10;49.70;;;;;;5074174;28;20424;-78
2022/07/14 03:24:02;;;;;;;4.55;2.15;;;27.10;49.70;;;;;;5074371;28;20024;-79
2022/07/14 03:26:30;;;;;;;6.75;2.03;;;27.20;49.30;;;;;;5092386;28;20394;-79
2022/07/14 03:28:56;;;;;;;5.50;1.95;;;27.20;49.20;;;;;;5094062;28;20177;-89
2022/07/14 03:31:22;;;;;;;6.50;3.10;;;27.20;49.10;;;;;;5094059;28;20024;-78
2022/07/14 03:33:48;;;;;;;4.38;2.08;;;27.30;49.10;;;;;;5094579;28;20360;-78
2022/07/14 03:36:13;;;;;;;3.83;1.90;;;27.30;48.60;;;;;;5078284;28;20055;-80
2022/07/14 03:38:40;;;;;;;3.65;2.00;;;27.40;48.60;;;;;;5081941;28;20028;-82
2022/07/14 03:41:06;;;;;;;4.85;2.15;;;27.40;48.80;;;;;;5093128;28;20032;-86
2022/07/14 03:43:32;;;;;;;6.50;2.08;;;27.10;49.30;;;;;;5093228;28;20023;-79
2022/07/14 03:45:57;;;;;;;3.92;2.10;;;27.00;49.90;;;;;;5078554;28;20427;-78
2022/07/14 03:48:23;;;;;;;3.33;2.00;;;27.00;50.80;;;;;;5074982;28;20057;-82
2022/07/14 03:50:49;;;;;;;5.15;2.20;;;27.00;51.10;;;;;;5072926;28;20040;-80
2022/07/14 03:53:15;;;;;;;5.25;2.03;;;27.10;51.20;;;;;;5075823;28;20421;-88
2022/07/14 03:55:43;;;;;;;3.40;2.03;;;27.10;50.70;;;;;;5075826;28;20520;-83
2022/07/14 03:58:08;;;;;;;4.00;2.00;;;27.10;50.90;;;;;;5074635;28;20029;-80
2022/07/14 04:00:34;;;;;;;4.88;2.03;;;27.20;50.80;;;;;;5089558;28;20371;-80
2022/07/14 04:03:00;;;;;;;5.10;2.00;;;27.30;50.70;;;;;;5081475;28;20031;-82
2022/07/14 04:05:26;;;;;;;4.30;2.15;;;27.40;50.80;;;;;;5080756;28;20032;-78
2022/07/14 04:07:52;;;;;;;4.70;2.05;;;27.30;50.70;;;;;;5073909;28;20056;-85
2022/07/14 04:10:18;;;;;;;4.75;2.10;;;27.40;50.70;;;;;;5072035;28;20025;-86
2022/07/14 04:12:44;;;;;;;3.40;1.92;;;27.60;50.80;;;;;;5074508;28;20379;-80
2022/07/14 04:15:10;;;;;;;3.90;2.03;;;27.70;50.10;;;;;;5073027;28;20097;-84
2022/07/14 04:17:36;;;;;;;5.65;2.00;;;27.70;49.70;;;;;;5075909;28;20107;-83
2022/07/14 04:20:02;;;;;;;3.00;1.90;;;27.70;49.50;;;;;;5073827;28;20032;-81
2022/07/14 04:22:28;;;;;;;3.30;2.20;;;27.70;49.60;;;;;;5073560;28;20025;-81
2022/07/14 04:24:54;;;;;;;4.03;2.03;;;27.70;49.50;;;;;;5076829;28;20027;-79
2022/07/14 04:27:20;;;;;;;4.97;1.95;;;27.80;49.30;;;;;;5093657;28;20036;-79
2022/07/14 04:29:46;;;;;;;5.05;2.20;;;27.80;49.20;;;;;;5092746;28;20035;-84
2022/07/14 04:32:12;;;;;;;3.60;2.08;;;27.90;49.30;;;;;;5079031;28;20095;-87
2022/07/14 04:34:39;;;;;;;3.70;2.00;;;28.00;49.30;;;;;;5072825;28;20071;-78
2022/07/14 04:37:04;;;;;;;2.97;1.95;;;28.10;49.20;;;;;;5074251;28;20089;-81
2022/07/14 04:39:31;;;;;;;5.93;2.20;;;28.20;49.00;;;;;;5088509;28;20067;-81
2022/07/14 04:41:56;;;;;;;5.10;2.13;;;28.20;49.10;;;;;;5074945;28;20417;-84
2022/07/14 04:44:22;;;;;;;3.63;2.10;;;28.30;49.20;;;;;;5082410;28;20486;-80
2022/07/14 04:46:48;;;;;;;4.03;2.17;;;28.20;49.50;;;;;;5081377;28;20044;-80
2022/07/14 04:52:02;;;;;;;8.80;2.25;;;28.50;49.60;;;;;;5072742;28;20036;-79
2022/07/14 04:54:36;;;;;;;5.18;2.00;;;28.60;49.10;;;;;;5085516;28;20039;-83
2022/07/14 04:57:04;;;;;;;5.63;2.10;;;28.80;49.60;;;;;;5084059;28;20417;-80
2022/07/14 04:59:30;;;;;;;7.28;2.10;;;28.80;49.40;;;;;;5090251;28;20039;-82
2022/07/14 05:01:56;;;;;;;7.75;2.40;;;28.90;49.40;;;;;;5092839;28;20028;-80
2022/07/14 05:04:22;;;;;;;7.10;2.03;;;29.00;48.80;;;;;;5093046;28;20021;-82
2022/07/14 05:07:18;;;;;;;8.07;2.78;;;29.00;49.10;;;;;;5095399;28;20032;-84
2022/07/14 05:09:43;;;;;;;4.25;1.90;;;29.00;49.00;;;;;;5113697;28;20391;-90
2022/07/14 05:12:11;;;;;;;5.95;2.20;;;28.90;49.20;;;;;;5113603;28;20024;-77
2022/07/14 05:14:38;;;;;;;7.47;2.35;;;28.90;49.20;;;;;;5113726;28;20024;-88
2022/07/14 05:17:04;;;;;;;6.72;2.10;;;29.00;49.00;;;;;;5113783;28;20051;-84
2022/07/14 05:19:29;;;;;;;3.40;2.03;;;29.20;48.70;;;;;;5092713;28;20461;-80
2022/07/14 05:21:55;;;;;;;6.20;2.15;;;29.30;49.10;;;;;;5087259;28;20024;-78
2022/07/14 05:24:20;;;;;;;3.15;1.90;;;29.50;48.50;;;;;;5092285;28;20028;-80
2022/07/14 05:26:46;;;;;;;6.30;2.10;;;29.80;48.30;;;;;;5091888;28;20017;-89
2022/07/14 05:29:12;;;;;;;5.68;2.20;;;29.90;48.30;;;;;;5093124;28;20047;-81
2022/07/14 05:31:38;;;;;;;4.18;2.10;;;30.00;47.40;;;;;;5071794;28;20131;-78
2022/07/14 05:34:03;;;;;;;3.33;2.00;;;30.10;47.60;;;;;;5077881;28;20048;-81
2022/07/14 05:36:29;;;;;;;6.35;2.25;;;30.10;47.50;;;;;;5087108;28;21447;-87
2022/07/14 05:38:55;;;;;;;3.88;2.00;;;30.30;47.30;;;;;;5086420;28;20378;-83
2022/07/14 05:41:20;;;;;;;4.65;2.30;;;30.30;47.50;;;;;;5076625;28;20032;-88
2022/07/14 05:43:47;;;;;;;3.10;1.73;;;30.40;46.70;;;;;;4720841;27;10000582;-79
2022/07/14 05:46:13;;;;;;;2.90;1.90;;;30.50;47.30;;;;;;5071307;28;20024;-86
2022/07/14 05:48:40;;;;;;;3.83;1.98;;;30.40;46.60;;;;;;5068490;28;20065;-77
2022/07/14 05:51:10;;;;;;;4.72;2.00;;;30.60;47.00;;;;;;5080863;28;20081;-79
2022/07/14 05:53:36;;;;;;;3.58;2.08;;;30.80;45.90;;;;;;5091325;28;20038;-83
2022/07/14 05:56:04;;;;;;;4.00;1.95;;;30.90;46.00;;;;;;5075307;28;20123;-78
2022/07/14 05:58:30;;;;;;;3.97;2.05;;;31.00;45.80;;;;;;5087044;28;20032;-78
2022/07/14 06:00:55;;;;;;;4.05;2.10;;;31.10;45.70;;;;;;5078444;28;20020;-84
2022/07/14 06:03:21;;;;;;;3.40;1.80;;;31.20;45.70;;;;;;5085732;28;20052;-77
2022/07/14 06:05:47;;;;;;;6.47;2.10;;;31.40;46.00;;;;;;5090491;28;20071;-79
2022/07/14 06:08:13;;;;;;;6.00;2.03;;;31.60;46.00;;;;;;5086198;28;20097;-86
2022/07/14 06:10:38;;;;;;;6.85;2.13;;;31.90;45.60;;;;;;5090614;28;20039;-79
2022/07/14 06:13:04;;;;;;;3.47;2.20;;;32.10;45.00;;;;;;5075832;28;20032;-80
2022/07/14 06:15:30;;;;;;;2.90;1.80;;;32.50;44.90;;;;;;5073577;28;20024;-78
2022/07/14 06:17:56;;;;;;;3.63;1.90;;;32.60;45.00;;;;;;5072210;28;20029;-81
2022/07/14 06:20:22;;;;;;;4.57;2.15;;;32.80;45.00;;;;;;5077141;28;20024;-87
2022/07/14 06:22:49;;;;;;;4.65;2.20;;;32.80;45.10;;;;;;5071961;28;20032;-82
2022/07/14 06:25:15;;;;;;;5.55;2.00;;;32.80;44.80;;;;;;5087991;28;20085;-89
2022/07/14 06:27:41;;;;;;;4.93;1.95;;;32.80;44.90;;;;;;5103396;28;20031;-77
2022/07/14 06:30:08;;;;;;;3.55;2.00;;;32.80;45.50;;;;;;5088317;28;20032;-78
2022/07/14 06:32:39;;;;;;;4.28;1.98;;;32.80;44.60;;;;;;5073186;28;20027;-83
2022/07/14 06:35:08;;;;;;;3.60;2.00;;;32.90;44.40;;;;;;5072643;28;20023;-77
2022/07/14 06:37:36;;;;;;;3.35;1.80;;;33.00;44.30;;;;;;5073059;28;20067;-82
2022/07/14 06:40:06;;;;;;;4.45;2.00;;;33.10;44.70;;;;;;5099387;28;20028;-80
2022/07/14 06:42:35;;;;;;;3.50;1.90;;;33.20;45.00;;;;;;5101812;28;20028;-80
2022/07/14 06:45:02;;;;;;;5.53;1.90;;;33.30;44.70;;;;;;5106378;28;20031;-83
2022/07/14 06:47:30;;;;;;;6.40;3.28;;;33.40;44.30;;;;;;5088003;27;20044;-88
2022/07/14 06:49:57;;;;;;;4.65;2.20;;;33.10;44.40;;;;;;5073712;28;20020;-85
2022/07/14 06:52:23;;;;;;;2.92;1.90;;;33.40;44.20;;;;;;5100173;28;20024;-75
2022/07/14 06:54:50;;;;;;;4.07;2.03;;;33.70;44.70;;;;;;5090346;28;20364;-74
2022/07/14 06:57:16;;;;;;;4.10;2.03;;;34.00;43.40;;;;;;5101607;28;20053;-80
2022/07/14 06:59:41;;;;;;;3.83;2.28;;;34.30;44.30;;;;;;5106584;28;20027;-85
2022/07/14 07:02:08;;;;;;;5.60;2.10;;;34.60;43.70;;;;;;5094202;28;20463;-82
2022/07/14 07:04:33;;;;;;;4.45;2.08;;;34.70;44.20;;;;;;5094831;28;20020;-79
2022/07/14 07:06:59;;;;;;;5.25;1.90;;;34.80;43.50;;;;;;5093642;28;20432;-88
2022/07/14 07:09:25;;;;;;;3.30;2.00;;;34.50;43.40;;;;;;5092886;28;20036;-79
2022/07/14 07:11:50;;;;;;;3.03;1.90;;;34.30;43.90;;;;;;5095057;28;20434;-85
2022/07/14 07:14:18;;;;;;;2.65;1.92;;;34.10;44.00;;;;;;5093541;28;20066;-82
2022/07/14 07:16:47;;;;;;;12.40;2.00;;;34.10;44.00;;;;;;5095049;28;20073;-79
2022/07/14 07:19:14;;;;;;;3.50;1.92;;;34.00;43.80;;;;;;5093797;28;20387;-87
2022/07/14 07:21:40;;;;;;;4.95;2.25;;;33.80;44.00;;;;;;5085115;28;20028;-80
2022/07/14 07:24:05;;;;;;;3.90;1.83;;;33.50;43.90;;;;;;5074175;28;20034;-78
2022/07/14 07:26:37;;;;;;;4.60;2.00;;;33.10;44.30;;;;;;5092681;28;20376;-79
2022/07/14 07:29:04;;;;;;;6.20;1.90;;;32.90;44.70;;;;;;5114843;28;20039;-79
2022/07/14 07:31:31;;;;;;;3.60;2.10;;;32.90;45.10;;;;;;5114931;28;20072;-79
2022/07/14 07:33:57;;;;;;;4.95;2.10;;;33.10;44.70;;;;;;5109653;28;20099;-85
2022/07/14 07:36:22;;;;;;;5.13;2.10;;;33.30;45.00;;;;;;5094727;28;20020;-79
2022/07/14 07:38:48;;;;;;;5.57;2.10;;;33.30;45.30;;;;;;5082601;28;20031;-84
2022/07/14 07:41:14;;;;;;;4.93;1.90;;;33.40;45.30;;;;;;5073114;28;20035;-81
2022/07/14 07:43:39;;;;;;;3.38;2.08;;;33.30;45.10;;;;;;5077071;28;20021;-79
2022/07/14 07:46:05;;;;;;;3.78;2.00;;;33.30;45.20;;;;;;5094258;28;20059;-80
2022/07/14 07:48:33;;;;;;;4.43;2.05;;;33.40;45.30;;;;;;5092948;28;20055;-81
2022/07/14 07:50:59;;;;;;;3.90;2.00;;;33.40;45.00;;;;;;5077719;28;20425;-81
2022/07/14 07:53:25;;;;;;;5.55;2.08;;;33.40;45.30;;;;;;5079667;28;20541;-80
2022/07/14 07:55:53;;;;;;;5.00;2.25;;;33.60;45.40;;;;;;5085425;28;20427;-88
2022/07/14 07:58:20;;;;;;;5.20;2.10;;;33.90;45.00;;;;;;5094317;28;20115;-79
2022/07/14 08:00:47;;;;;;;5.65;2.50;;;34.30;45.30;;;;;;5094075;28;20039;-80
2022/07/14 08:03:13;;;;;;;4.32;2.20;;;34.50;44.80;;;;;;5093788;28;20032;-80
2022/07/14 08:05:40;;;;;;;3.88;2.10;;;34.60;45.10;;;;;;5093379;28;20050;-85
2022/07/14 08:08:07;;;;;;;4.35;1.80;;;34.80;44.90;;;;;;5106805;28;20379;-83
2022/07/14 08:10:33;;;;;;;3.78;2.05;;;34.80;44.90;;;;;;5106356;28;20060;-82
2022/07/14 08:12:58;;;;;;;6.05;2.20;;;34.90;44.60;;;;;;5089774;28;20170;-82
2022/07/14 08:15:25;;;;;;;3.97;1.92;;;34.70;44.00;;;;;;5079540;28;20032;-89
2022/07/14 08:17:51;;;;;;;4.45;1.95;;;34.10;45.20;;;;;;5091201;28;20055;-85
2022/07/14 08:20:16;;;;;;;4.40;1.95;;;34.10;44.30;;;;;;5093953;28;20126;-88
2022/07/14 08:22:42;;;;;;;3.17;1.88;;;34.30;45.10;;;;;;5092504;28;20023;-81
2022/07/14 08:25:10;;;;;;;3.40;2.00;;;34.40;45.00;;;;;;5093677;28;20032;-80
2022/07/14 08:27:36;;;;;;;4.38;1.90;;;34.50;44.80;;;;;;5092707;28;20082;-87
2022/07/14 08:30:02;;;;;;;4.53;2.00;;;34.50;44.90;;;;;;5092954;28;20545;-84
2022/07/14 08:32:44;;;;;;;4.13;1.80;;;34.70;44.70;;;;;;5094095;28;20022;-86
2022/07/14 08:35:14;;;;;;;3.78;2.20;;;35.00;45.30;;;;;;5093466;28;20474;-85
2022/07/14 08:37:40;;;;;;;3.67;1.90;;;35.10;44.90;;;;;;5093277;28;20382;-82
2022/07/14 08:40:12;;;;;;;4.95;1.90;;;34.90;44.60;;;;;;5092603;28;20024;-80
2022/07/14 08:42:39;;;;;;;4.15;2.10;;;34.60;45.50;;;;;;5093644;28;20378;-90
2022/07/14 08:45:10;;;;;;;3.92;1.88;;;34.60;44.80;;;;;;4737966;28;9999638;-84
2022/07/14 08:47:36;;;;;;;4.22;1.70;;;34.90;44.90;;;;;;5091857;28;20086;-93
2022/07/14 08:50:04;;;;;;;3.97;1.90;;;35.10;43.70;;;;;;5092492;28;20035;-86
2022/07/14 08:52:31;;;;;;;3.17;1.80;;;35.20;44.00;;;;;;5091567;28;20048;-91
2022/07/14 08:54:58;;;;;;;5.07;2.10;;;35.40;44.00;;;;;;5092396;28;20063;-86
2022/07/14 08:57:23;;;;;;;3.97;1.98;;;35.40;42.90;;;;;;5092296;28;20085;-88
2022/07/14 08:59:49;;;;;;;5.32;1.83;;;35.30;43.30;;;;;;5093189;28;20469;-83
2022/07/14 09:02:15;;;;;;;3.35;1.90;;;35.00;42.80;;;;;;5092397;28;20016;-85
2022/07/14 09:04:45;;;;;;;3.78;1.85;;;35.30;43.10;;;;;;5093452;28;20032;-87
2022/07/14 09:07:12;;;;;;;2.75;1.80;;;35.70;43.40;;;;;;5093932;28;20020;-82
2022/07/14 09:09:38;;;;;;;3.90;1.90;;;35.80;43.00;;;;;;5092339;28;20028;-90
2022/07/14 09:12:06;;;;;;;3.08;1.77;;;35.80;43.10;;;;;;5092203;28;20024;-84
2022/07/14 09:17:25;;;;;;;3.42;1.80;;;35.90;42.70;;;;;;5093927;28;20402;-85
2022/07/14 09:20:10;;;;;;;4.30;1.88;;;36.30;42.60;;;;;;5092828;28;20110;-88
2022/07/14 09:22:50;;;;;;;5.47;1.90;;;36.10;42.60;;;;;;5093197;28;20035;-80
2022/07/14 09:25:17;;;;;;;3.22;1.77;;;36.10;43.30;;;;;;5095903;28;20020;-79
2022/07/14 09:27:45;;;;;;;3.22;1.88;;;36.20;42.20;;;;;;5096331;28;20036;-88
2022/07/14 09:30:12;;;;;;;4.03;1.80;;;36.10;42.20;;;;;;5097386;28;20027;-85
2022/07/14 09:32:59;;;;;;;4.60;1.80;;;36.10;42.40;;;;;;5096540;28;20032;-85
2022/07/14 09:35:34;;;;;;;4.43;1.70;;;36.10;42.60;;;;;;5097508;28;20046;-87
2022/07/14 09:38:12;;;;;;;4.38;1.80;;;36.20;42.90;;;;;;5096570;28;20116;-87
2022/07/14 09:40:38;;;;;;;6.63;1.90;;;36.20;42.90;;;;;;5096059;28;20419;-86
2022/07/14 09:43:06;;;;;;;3.40;1.95;;;36.30;43.00;;;;;;5095717;28;20035;-80
2022/07/14 09:45:46;;;;;;;4.38;1.60;;;36.20;41.20;;;;;;5096407;28;20111;-82
2022/07/14 09:48:20;;;;;;;3.50;2.05;;;36.30;42.10;;;;;;5095569;28;20445;-83
2022/07/14 09:51:00;;;;;;;4.10;2.00;;;36.40;41.80;;;;;;5096106;28;20078;-80
2022/07/14 09:53:34;;;;;;;3.97;1.90;;;36.70;41.60;;;;;;5095584;28;20475;-83
2022/07/14 09:56:08;;;;;;;2.85;1.80;;;36.70;41.60;;;;;;5097277;28;20031;-89
2022/07/14 09:58:51;;;;;;;3.30;1.83;;;36.90;41.50;;;;;;5097127;28;20028;-95
2022/07/14 10:01:18;;;;;;;3.40;1.80;;;37.20;42.10;;;;;;5096272;28;20023;-83
2022/07/14 10:03:50;;;;;;;7.07;2.28;;;37.20;41.20;;;;;;5095598;28;20034;-84
2022/07/14 10:06:17;;;;;;;3.72;1.92;;;37.10;40.50;;;;;;5095114;28;20048;-89
2022/07/14 10:08:49;;;;;;;5.07;1.80;;;37.30;40.90;;;;;;5096502;28;20065;-90
2022/07/14 10:11:16;;;;;;;3.78;1.88;;;37.30;40.70;;;;;;5095452;28;20470;-80
2022/07/14 10:13:42;;;;;;;5.45;1.80;;;37.30;40.10;;;;;;5096477;28;20020;-88
2022/07/14 10:16:08;;;;;;;3.35;1.80;;;37.30;40.20;;;;;;5095240;28;20432;-90
2022/07/14 10:18:35;;;;;;;7.03;1.80;;;37.60;40.80;;;;;;5096348;28;20441;-85
2022/07/14 10:21:04;;;;;;;3.92;1.80;;;37.80;40.30;;;;;;5095311;28;20016;-90
2022/07/14 10:23:31;;;;;;;3.65;1.67;;;38.10;40.00;;;;;;5095118;28;20474;-86
2022/07/14 10:25:58;;;;;;;4.55;1.80;;;37.90;40.10;;;;;;5096231;28;20078;-89
2022/07/14 10:28:26;;;;;;;5.50;1.90;;;38.00;40.00;;;;;;5096284;28;20028;-83
2022/07/14 10:31:23;;;;;;;4.88;1.80;;;38.20;40.90;;;;;;5094866;28;20028;-92
2022/07/14 10:34:23;;;;;;;7.95;2.00;;;37.90;39.60;;;;;;5096379;28;20474;-86
2022/07/14 10:37:13;;;;;;;6.10;1.83;;;38.10;41.50;;;;;;5095459;28;20024;-80
2022/07/14 10:39:39;;;;;;;;;;;38.10;39.80;;;;;;5096478;28;20024;-88
2022/07/14 10:42:14;;;;;;;10.50;1.88;;;38.10;39.60;;;;;;5095319;28;19908;-83
2022/07/14 10:44:45;;;;;;;8.35;2.00;;;38.20;39.70;;;;;;5094763;28;20035;-85
2022/07/14 10:47:26;;;;;;;3.72;1.70;;;38.50;39.90;;;;;;5093913;28;20034;-92
2022/07/14 10:50:18;;;;;;;6.00;1.73;;;38.70;40.60;;;;;;5094403;28;20061;-85
2022/07/14 10:53:04;;;;;;;4.80;1.58;;;38.80;40.10;;;;;;5095390;28;20043;-84
2022/07/14 10:55:30;;;;;;;2.85;1.70;;;38.90;38.40;;;;;;5094550;28;20505;-82
2022/07/14 10:57:58;;;;;;;6.72;1.92;;;38.90;38.60;;;;;;5096109;28;20032;-88
2022/07/14 11:00:47;;;;;;;3.00;1.50;;;38.90;39.00;;;;;;5094913;28;20032;-89
2022/07/14 11:03:37;;;;;;;7.47;1.70;;;39.10;39.10;;;;;;5094872;28;20055;-89
2022/07/14 11:06:03;;;;;;;11.63;2.20;;;39.10;39.00;;;;;;5093957;28;20493;-83
2022/07/14 11:08:30;;;;;;;4.45;1.70;;;38.90;39.20;;;;;;5095433;28;20039;-83
2022/07/14 11:11:00;;;;;;;6.28;2.17;;;38.60;38.50;;;;;;5095235;28;20020;-80
2022/07/14 11:13:27;;;;;;;4.75;1.80;;;38.40;39.00;;;;;;5094877;28;20035;-83
2022/07/14 11:16:03;;;;;;;4.63;1.60;;;38.60;39.70;;;;;;5094543;28;20024;-90
2022/07/14 11:18:42;;;;;;;3.97;1.70;;;38.60;39.10;;;;;;5094807;28;20470;-83
2022/07/14 11:21:16;;;;;;;3.30;1.40;;;38.50;39.00;;;;;;5093766;28;20027;-83
2022/07/14 11:23:49;;;;;;;8.20;1.50;;;38.50;38.50;;;;;;5093992;28;20027;-83
2022/07/14 11:26:40;;;;;;;7.10;1.48;;;38.80;39.30;;;;;;5093266;28;20032;-80
2022/07/14 11:29:11;;;;;;;5.25;1.70;;;38.80;38.00;;;;;;5094210;28;20509;-90
2022/07/14 11:31:52;;;;;;;7.05;1.70;;;38.90;38.80;;;;;;5094340;28;20024;-81
2022/07/14 11:37:15;;;;;;;4.15;1.50;;;39.10;38.30;;;;;;5095295;28;20046;-78
2022/07/14 11:39:42;;;;;;;2.17;1.40;;;39.40;37.70;;;;;;5094502;28;20374;-82
2022/07/14 11:42:13;;;;;;;3.10;1.60;;;39.50;38.40;;;;;;5093209;28;20434;-79
2022/07/14 11:44:38;;;;;;;2.53;1.33;;;39.50;38.20;;;;;;5094657;28;20110;-80
2022/07/14 11:47:28;;;;;;;4.38;1.40;;;39.30;38.80;;;;;;5094116;28;20222;-79
2022/07/14 11:50:09;;;;;;;3.58;1.58;;;39.50;38.30;;;;;;5092844;28;20084;-90
2022/07/14 11:52:42;;;;;;;4.57;1.63;;;39.50;37.90;;;;;;5093528;28;20032;-93
2022/07/14 11:55:10;;;;;;;3.70;1.65;;;39.10;37.40;;;;;;5092987;28;20533;-81
2022/07/14 11:57:36;;;;;;;3.13;1.73;;;38.90;37.60;;;;;;5094404;28;20076;-80
2022/07/14 12:00:08;;;;;;;5.22;1.70;;;38.70;37.30;;;;;;5094552;28;20036;-80
2022/07/14 12:02:58;;;;;;;4.05;1.55;;;38.60;37.60;;;;;;5092883;28;20430;-83
2022/07/14 12:05:25;;;;;;;;;;;38.60;38.00;;;;;;5093003;28;20115;-84
2022/07/14 12:07:53;;;;;;;2.95;1.60;;;38.50;38.00;;;;;;5092976;28;19934;-82
2022/07/14 12:10:34;;;;;;;2.97;1.67;;;38.40;38.40;;;;;;5093238;28;20081;-85
2022/07/14 12:13:00;;;;;;;3.53;1.80;;;38.40;38.10;;;;;;5092875;28;20020;-83
2022/07/14 12:15:26;;;;;;;17.05;2.53;;;38.40;37.90;;;;;;5093873;28;20040;-74
2022/07/14 12:17:54;;;;;;;2.65;1.77;;;38.00;37.90;;;;;;5094349;28;20024;-80
2022/07/14 12:20:21;;;;;;;2.88;1.50;;;38.00;37.80;;;;;;5094531;28;20047;-77
2022/07/14 12:22:55;;;;;;;4.00;1.50;;;38.40;37.70;;;;;;5093730;28;20051;-81
2022/07/14 12:25:31;;;;;;;4.18;1.77;;;38.70;37.70;;;;;;5093101;28;20389;-78
2022/07/14 12:28:00;;;;;;;6.47;1.70;;;38.80;37.20;;;;;;5094045;28;20020;-82
2022/07/14 12:30:51;;;;;;;2.97;1.55;;;38.60;37.30;;;;;;5094756;28;20044;-78
2022/07/14 12:33:22;;;;;;;3.30;1.50;;;38.60;37.50;;;;;;5092908;28;20016;-86
2022/07/14 12:35:52;;;;;;;2.95;1.70;;;39.00;37.30;;;;;;5093777;28;20059;-87
2022/07/14 12:38:19;;;;;;;3.00;1.65;;;39.00;36.90;;;;;;5093579;28;20490;-85
2022/07/14 12:40:57;;;;;;;4.65;1.60;;;39.00;37.50;;;;;;5092635;28;20027;-82
2022/07/14 12:43:24;;;;;;;5.43;1.73;;;39.10;37.00;;;;;;5094277;28;20417;-86
2022/07/14 12:46:14;;;;;;;3.25;1.70;;;39.10;36.80;;;;;;5093124;28;20024;-85
2022/07/14 12:48:49;;;;;;;3.15;1.70;;;39.20;36.90;;;;;;5093925;28;20044;-84
2022/07/14 12:51:24;;;;;;;2.50;1.58;;;39.70;37.50;;;;;;5092288;28;20024;-87
2022/07/14 12:54:16;;;;;;;3.60;1.40;;;39.80;37.10;;;;;;5092727;28;20051;-79
2022/07/14 12:56:42;;;;;;;3.90;1.95;;;39.90;37.60;;;;;;5093780;28;20091;-89
2022/07/14 12:59:10;;;;;;;2.70;1.70;;;40.00;36.60;;;;;;5092969;28;20122;-84
2022/07/14 13:02:04;;;;;;;4.15;1.60;;;40.20;36.70;;;;;;5092365;28;20085;-81
2022/07/14 13:04:33;;;;;;;2.97;1.42;;;40.00;36.00;;;;;;5093631;28;20051;-85
2022/07/14 13:07:29;;;;;;;6.55;2.72;;;39.60;36.70;;;;;;5092636;28;20024;-93